Time;durP1;ratioP1;P1;durP2;ratioP2;P2;SDS_P1;SDS_P2;PMS_P1;PMS_P2;Temp;Humidity;BMP_temperature;BMP_pressure;BME280_temperature;BME280_humidity;BME280_pressure;Samples;Min_cycle;Max_cycle;Signal;HPM_P1;HPM_P2
2020/12/11 00:00:28;;;;;;;0.20;0.10;;;;;;;2.34;100.00;99175.06;5035055;28;20447;-49
2020/12/11 00:02:54;;;;;;;0.20;0.10;;;;;;;2.31;100.00;99169.81;5035081;28;20552;-50
2020/12/11 00:05:21;;;;;;;0.20;0.10;;;;;;;2.38;100.00;99171.50;5035113;28;20443;-50
2020/12/11 00:07:47;;;;;;;0.20;0.10;;;;;;;2.44;99.76;99179.25;5031443;28;20917;-50
2020/12/11 00:10:14;;;;;;;0.20;0.10;;;;;;;2.40;99.50;99177.56;5034659;28;20456;-50
2020/12/11 00:12:41;;;;;;;0.20;0.10;;;;;;;2.45;99.11;99180.13;5034931;28;20448;-50
2020/12/11 00:15:09;;;;;;;0.20;0.20;;;;;;;2.55;99.35;99177.34;5034605;28;20495;-50
2020/12/11 00:17:35;;;;;;;0.20;0.10;;;;;;;2.40;100.00;99164.47;5034266;28;20937;-50
2020/12/11 00:20:04;;;;;;;0.20;0.10;;;;;;;2.40;100.00;99156.59;5034568;28;20462;-50
2020/12/11 00:22:30;;;;;;;0.20;0.10;;;;;;;2.33;99.87;99157.56;5034508;28;20474;-51
2020/12/11 00:24:56;;;;;;;0.77;0.77;;;;;;;2.34;99.86;99157.56;5033910;28;20455;-52
2020/12/11 00:27:23;;;;;;;1.73;1.63;;;;;;;2.36;100.00;99147.06;5034270;28;20506;-50
2020/12/11 00:29:49;;;;;;;0.20;0.10;;;;;;;2.24;100.00;99142.84;5034446;28;20814;-50
2020/12/11 00:32:15;;;;;;;0.20;0.10;;;;;;;2.20;100.00;99138.53;5033938;28;20458;-51
2020/12/11 00:34:41;;;;;;;0.20;0.10;;;;;;;2.20;100.00;99137.66;5034745;28;20487;-51
2020/12/11 00:37:08;;;;;;;0.20;0.10;;;;;;;2.29;100.00;99130.53;5030501;28;21008;-50
2020/12/11 00:39:34;;;;;;;0.20;0.10;;;;;;;2.31;100.00;99136.59;5025123;28;20610;-50
2020/12/11 00:42:01;;;;;;;0.20;0.10;;;;;;;2.29;100.00;99137.53;5033942;28;20940;-50
2020/12/11 00:44:27;;;;;;;0.20;0.10;;;;;;;2.24;100.00;99131.50;5034444;28;20474;-49
2020/12/11 00:46:55;;;;;;;0.20;0.10;;;;;;;2.25;100.00;99122.75;5034405;28;20452;-49
2020/12/11 00:49:22;;;;;;;0.20;0.10;;;;;;;2.12;100.00;99115.94;5034071;28;20475;-50
2020/12/11 00:51:53;;;;;;;0.20;0.10;;;;;;;2.07;100.00;99108.13;5034241;28;20521;-49
2020/12/11 00:54:19;;;;;;;0.20;0.10;;;;;;;2.09;100.00;99101.13;5033852;28;20475;-49
2020/12/11 00:56:45;;;;;;;0.20;0.10;;;;;;;2.10;100.00;99104.59;5033988;28;20455;-50
2020/12/11 00:59:12;;;;;;;0.20;0.10;;;;;;;2.01;100.00;99101.22;5034005;28;20478;-49
2020/12/11 01:01:38;;;;;;;0.20;0.10;;;;;;;2.00;100.00;99096.00;5034048;28;20554;-50
2020/12/11 01:04:04;;;;;;;0.20;0.10;;;;;;;1.93;100.00;99084.75;5033836;28;20535;-49
2020/12/11 01:06:30;;;;;;;0.20;0.10;;;;;;;1.84;100.00;99077.00;5033448;28;20526;-50
2020/12/11 01:08:57;;;;;;;0.20;0.10;;;;;;;1.82;100.00;99081.38;5029811;28;20887;-49
2020/12/11 01:11:23;;;;;;;0.20;0.10;;;;;;;1.75;100.00;99077.97;5033519;28;20534;-49
2020/12/11 01:13:50;;;;;;;0.20;0.10;;;;;;;1.80;100.00;99079.69;5034082;28;20487;-49
2020/12/11 01:16:16;;;;;;;0.60;0.60;;;;;;;1.82;100.00;99073.53;5033426;28;20452;-50
2020/12/11 01:18:43;;;;;;;0.20;0.10;;;;;;;1.83;100.00;99072.63;5033597;28;20562;-49
2020/12/11 01:21:09;;;;;;;0.20;0.10;;;;;;;1.89;100.00;99075.16;5033384;28;20447;-51
2020/12/11 01:23:35;;;;;;;0.20;0.10;;;;;;;1.87;100.00;99070.84;5033912;28;20451;-51
2020/12/11 01:26:01;;;;;;;0.20;0.10;;;;;;;1.82;100.00;99072.66;5033655;28;20837;-51
2020/12/11 01:28:27;;;;;;;0.20;0.10;;;;;;;1.74;100.00;99054.41;5033750;28;20472;-50
2020/12/11 01:30:53;;;;;;;0.20;0.10;;;;;;;1.78;100.00;99041.28;5033322;28;20459;-51
2020/12/11 01:33:20;;;;;;;0.20;0.10;;;;;;;1.93;100.00;99050.69;5033632;28;20452;-51
2020/12/11 01:35:46;;;;;;;0.20;0.10;;;;;;;2.02;100.00;99042.66;5033093;28;20855;-51
2020/12/11 01:38:12;;;;;;;0.20;0.20;;;;;;;2.11;100.00;99043.44;5019402;28;20559;-51
2020/12/11 01:40:38;;;;;;;0.20;0.10;;;;;;;2.02;100.00;99042.66;5032802;28;20570;-51
2020/12/11 01:43:04;;;;;;;0.20;0.10;;;;;;;2.06;100.00;99041.75;5033161;28;20459;-51
2020/12/11 01:45:30;;;;;;;0.20;0.10;;;;;;;2.06;100.00;99052.25;5032933;28;20452;-51
2020/12/11 01:47:57;;;;;;;0.20;0.20;;;;;;;2.18;100.00;99050.31;5032886;28;20471;-51
2020/12/11 01:50:24;;;;;;;0.20;0.10;;;;;;;2.06;100.00;99036.53;5032941;28;20452;-50
2020/12/11 01:52:51;;;;;;;0.20;0.10;;;;;;;2.06;100.00;99028.66;5032698;28;20483;-50
2020/12/11 01:55:17;;;;;;;0.20;0.10;;;;;;;2.01;100.00;99027.84;5032969;28;20496;-50
2020/12/11 01:57:56;;;;;;;0.20;0.10;;;;;;;2.01;100.00;99012.13;5032559;28;20848;-50
2020/12/11 02:00:23;;;;;;;0.20;0.10;;;;;;;1.99;100.00;99002.56;5021118;28;20443;-50
2020/12/11 02:03:02;;;;;;;0.20;0.10;;;;;;;1.98;100.00;98995.59;5032505;28;20455;-51
2020/12/11 02:05:28;;;;;;;0.20;0.10;;;;;;;2.00;100.00;98997.28;5032697;28;20440;-50
2020/12/11 02:07:56;;;;;;;0.20;0.10;;;;;;;2.05;100.00;98994.59;5028201;28;20980;-50
2020/12/11 02:10:22;;;;;;;0.20;0.10;;;;;;;2.01;100.00;98985.03;5032598;28;20459;-50
2020/12/11 02:12:48;;;;;;;0.20;0.10;;;;;;;2.06;100.00;98975.38;5032431;28;20509;-50
2020/12/11 02:15:15;;;;;;;0.30;0.20;;;;;;;2.01;100.00;98974.56;5032472;28;20905;-51
2020/12/11 02:17:41;;;;;;;0.20;0.10;;;;;;;1.99;100.00;98978.97;5032132;28;20831;-51
2020/12/11 02:20:07;;;;;;;0.20;0.10;;;;;;;2.04;100.00;98983.25;5032363;28;20447;-51
2020/12/11 02:22:33;;;;;;;0.20;0.10;;;;;;;2.05;100.00;98982.34;5032323;28;20948;-50
2020/12/11 02:24:59;;;;;;;0.30;0.30;;;;;;;2.02;100.00;98968.44;5032253;28;20455;-50
2020/12/11 02:27:25;;;;;;;0.20;0.10;;;;;;;2.02;100.00;98960.56;5032131;28;20447;-50
2020/12/11 02:29:52;;;;;;;0.20;0.10;;;;;;;1.97;100.00;98942.31;5032255;28;20456;-50
2020/12/11 02:32:19;;;;;;;0.30;0.30;;;;;;;1.94;100.00;98931.88;5032039;28;20937;-50
2020/12/11 02:34:46;;;;;;;0.20;0.10;;;;;;;1.94;100.00;98937.13;5032519;28;20483;-50
2020/12/11 02:37:13;;;;;;;0.20;0.10;;;;;;;2.05;100.00;98940.41;5027677;28;20791;-50
2020/12/11 02:39:40;;;;;;;0.20;0.10;;;;;;;1.98;100.00;98940.56;5023327;28;20533;-51
2020/12/11 02:42:07;;;;;;;0.20;0.10;;;;;;;1.93;100.00;98930.16;5031009;28;20452;-49
2020/12/11 02:44:34;;;;;;;0.20;0.10;;;;;;;1.94;100.00;98921.41;5023408;28;20443;-50
2020/12/11 02:47:00;;;;;;;0.20;0.10;;;;;;;1.92;100.00;98927.53;5032000;28;20451;-50
2020/12/11 02:49:27;;;;;;;2.03;1.93;;;;;;;1.99;100.00;98929.19;5034785;28;20980;-50
2020/12/11 02:51:53;;;;;;;0.20;0.10;;;;;;;1.99;100.00;98927.44;5035908;28;20448;-51
2020/12/11 02:54:19;;;;;;;0.20;0.10;;;;;;;2.03;100.00;98928.22;5035031;28;20486;-50
2020/12/11 02:56:45;;;;;;;0.20;0.10;;;;;;;2.19;100.00;98926.22;5036303;28;20443;-50
2020/12/11 02:59:11;;;;;;;0.20;0.10;;;;;;;2.27;100.00;98922.59;5036118;28;20474;-50
2020/12/11 03:01:37;;;;;;;0.20;0.10;;;;;;;2.35;100.00;98922.47;5035873;28;20474;-50
2020/12/11 03:04:04;;;;;;;0.20;0.10;;;;;;;2.31;100.00;98915.53;5036464;28;20530;-50
2020/12/11 03:06:32;;;;;;;0.20;0.10;;;;;;;2.17;100.00;98907.91;5035899;28;20525;-51
2020/12/11 03:08:59;;;;;;;0.20;0.10;;;;;;;2.21;100.00;98908.75;5031625;28;20892;-50
2020/12/11 03:11:26;;;;;;;0.20;0.10;;;;;;;2.31;100.00;98894.56;5036031;28;20444;-50
2020/12/11 03:13:53;;;;;;;0.20;0.10;;;;;;;2.30;100.00;98898.94;5035699;28;20519;-51
2020/12/11 03:16:20;;;;;;;0.20;0.10;;;;;;;2.33;100.00;98898.00;5035951;28;20452;-50
2020/12/11 03:18:47;;;;;;;0.20;0.10;;;;;;;2.23;100.00;98893.84;5035706;28;20467;-50
2020/12/11 03:21:14;;;;;;;0.20;0.10;;;;;;;2.25;100.00;98876.34;5035335;28;20458;-51
2020/12/11 03:23:41;;;;;;;0.20;0.10;;;;;;;2.14;100.00;98870.41;5035995;28;20451;-50
2020/12/11 03:26:07;;;;;;;0.20;0.10;;;;;;;2.16;100.00;98860.75;5035429;28;20933;-50
2020/12/11 03:28:34;;;;;;;0.20;0.10;;;;;;;2.17;100.00;98857.25;5035566;28;20482;-50
2020/12/11 03:31:00;;;;;;;0.20;0.10;;;;;;;2.13;100.00;98853.81;5035368;28;20940;-50
2020/12/11 03:33:26;;;;;;;0.57;0.57;;;;;;;2.13;100.00;98858.19;5035505;28;20451;-50
2020/12/11 03:35:53;;;;;;;0.20;0.10;;;;;;;2.26;100.00;98852.72;5035242;28;20991;-50
2020/12/11 03:38:20;;;;;;;0.20;0.10;;;;;;;2.21;100.00;98851.06;5021912;28;20518;-50
2020/12/11 03:40:46;;;;;;;0.20;0.10;;;;;;;2.08;100.00;98842.56;5035474;28;20480;-50
2020/12/11 03:43:13;;;;;;;0.20;0.10;;;;;;;2.19;100.00;98832.72;5025563;28;20869;-50
2020/12/11 03:45:39;;;;;;;0.20;0.10;;;;;;;2.09;100.00;98841.66;5035565;28;20452;-50
2020/12/11 03:48:05;;;;;;;0.20;0.10;;;;;;;2.07;100.00;98846.94;5035060;28;20503;-51
2020/12/11 03:50:31;;;;;;;0.20;0.10;;;;;;;2.25;100.00;98837.00;5035292;28;20510;-50
2020/12/11 03:52:57;;;;;;;0.20;0.10;;;;;;;2.12;100.00;98841.63;5034981;28;20458;-51
2020/12/11 03:55:23;;;;;;;0.20;0.10;;;;;;;2.12;100.00;98827.66;5035350;28;20902;-50
2020/12/11 03:57:50;;;;;;;0.20;0.10;;;;;;;2.20;100.00;98833.63;5034725;28;20478;-50
2020/12/11 04:00:16;;;;;;;0.20;0.10;;;;;;;2.24;100.00;98836.16;5034180;28;20447;-50
2020/12/11 04:02:42;;;;;;;0.30;0.10;;;;;;;2.23;100.00;98836.19;5034940;28;20447;-50
2020/12/11 04:05:09;;;;;;;0.20;0.10;;;;;;;2.24;100.00;98824.81;5034993;28;20436;-50
2020/12/11 04:07:35;;;;;;;0.20;0.10;;;;;;;2.27;100.00;98824.72;5030799;28;20452;-50
2020/12/11 04:10:01;;;;;;;0.20;0.10;;;;;;;2.18;100.00;98819.66;5035070;28;20448;-49
2020/12/11 04:12:27;;;;;;;0.20;0.10;;;;;;;2.05;100.00;98813.78;5034351;28;20448;-50
2020/12/11 04:14:53;;;;;;;0.20;0.10;;;;;;;2.04;100.00;98812.03;5035054;28;20498;-50
2020/12/11 04:17:19;;;;;;;0.20;0.10;;;;;;;1.97;100.00;98803.44;5034615;28;20497;-49
2020/12/11 04:19:46;;;;;;;0.20;0.10;;;;;;;2.10;100.00;98808.47;5034894;28;20448;-52
2020/12/11 04:22:12;;;;;;;0.20;0.10;;;;;;;2.10;100.00;98813.72;5034515;28;20455;-52
2020/12/11 04:24:38;;;;;;;0.20;0.10;;;;;;;2.12;100.00;98807.53;5034692;28;20455;-52
2020/12/11 04:27:04;;;;;;;0.20;0.10;;;;;;;2.09;100.00;98799.75;5034487;28;20458;-52
2020/12/11 04:29:31;;;;;;;0.20;0.10;;;;;;;2.02;100.00;98792.88;5034711;28;20467;-51
2020/12/11 04:31:58;;;;;;;0.30;0.30;;;;;;;1.95;100.00;98800.00;5034251;28;20459;-52
2020/12/11 04:34:26;;;;;;;0.20;0.10;;;;;;;1.96;100.00;98804.34;5034456;28;20491;-51
2020/12/11 04:36:54;;;;;;;0.20;0.10;;;;;;;2.21;100.00;98803.91;5032619;28;20444;-52
2020/12/11 04:39:21;;;;;;;0.20;0.10;;;;;;;2.08;100.00;98800.63;5021645;28;20479;-52
2020/12/11 04:41:49;;;;;;;0.20;0.10;;;;;;;2.07;100.00;98796.28;5034372;28;20527;-51
2020/12/11 04:44:15;;;;;;;0.20;0.20;;;;;;;2.04;100.00;98793.69;5024622;28;20462;-52
2020/12/11 04:46:42;;;;;;;0.20;0.10;;;;;;;2.07;100.00;98786.66;5034069;28;20455;-52
2020/12/11 04:49:08;;;;;;;0.30;0.30;;;;;;;2.00;100.00;98778.94;5034136;28;20554;-52
2020/12/11 04:51:35;;;;;;;0.20;0.10;;;;;;;1.87;100.00;98773.06;5033817;28;20448;-52
2020/12/11 04:54:03;;;;;;;0.20;0.10;;;;;;;1.92;100.00;98772.97;5034011;28;20447;-52
2020/12/11 04:56:30;;;;;;;0.20;0.10;;;;;;;1.76;100.00;98767.16;5033822;28;20464;-52
2020/12/11 04:58:56;;;;;;;0.20;0.10;;;;;;;1.69;100.00;98765.53;5033527;28;20467;-52
2020/12/11 05:01:31;;;;;;;0.20;0.10;;;;;;;1.71;100.00;98763.75;5034025;28;20858;-53
2020/12/11 05:03:59;;;;;;;0.30;0.20;;;;;;;1.62;100.00;98743.81;5033748;28;20443;-52
2020/12/11 05:06:26;;;;;;;0.20;0.10;;;;;;;1.56;100.00;98735.22;5033543;28;20459;-52
2020/12/11 05:09:16;;;;;;;0.20;0.10;;;;;;;1.52;100.00;98725.72;5029670;28;20491;-54
2020/12/11 05:11:44;;;;;;;0.20;0.10;;;;;;;1.50;100.00;98710.00;5021476;28;20494;-51
2020/12/11 05:14:34;;;;;;;0.20;0.10;;;;;;;1.44;100.00;98704.88;5033383;28;20494;-51
2020/12/11 05:17:03;;;;;;;0.20;0.10;;;;;;;1.38;100.00;98694.53;5033506;28;20459;-54
2020/12/11 05:19:47;;;;;;;0.20;0.10;;;;;;;1.40;100.00;98696.22;5033176;28;20467;-55
2020/12/11 05:22:14;;;;;;;0.20;0.10;;;;;;;1.52;100.00;98696.91;5033222;28;20447;-55
2020/12/11 05:24:44;;;;;;;0.20;0.10;;;;;;;1.63;100.00;98700.16;5033321;28;20506;-55
2020/12/11 05:27:24;;;;;;;0.20;0.10;;;;;;;1.70;100.00;98700.03;5033486;28;20444;-55
2020/12/11 05:29:55;;;;;;;0.20;0.10;;;;;;;1.83;100.00;98705.06;5033191;28;20505;-56
2020/12/11 05:32:33;;;;;;;0.20;0.10;;;;;;;1.85;100.00;98711.13;5033187;28;20470;-56
2020/12/11 05:34:59;;;;;;;0.20;0.10;;;;;;;1.90;100.00;98702.25;5032760;28;20487;-55
2020/12/11 05:37:25;;;;;;;0.20;0.10;;;;;;;1.93;100.00;98706.59;5027017;28;20453;-55
2020/12/11 05:39:51;;;;;;;0.20;0.10;;;;;;;2.00;100.00;98702.97;5026276;28;20512;-48
2020/12/11 05:42:18;;;;;;;0.20;0.10;;;;;;;1.99;100.00;98709.09;5030242;28;20470;-48
2020/12/11 05:44:44;;;;;;;0.20;0.10;;;;;;;2.01;100.00;98712.53;5026050;28;20942;-47
2020/12/11 05:47:23;;;;;;;0.20;0.10;;;;;;;2.18;100.00;98707.81;5032735;28;20451;-48
2020/12/11 05:49:49;;;;;;;0.20;0.10;;;;;;;2.10;100.00;98701.88;5032448;28;20446;-48
2020/12/11 05:52:23;;;;;;;0.20;0.10;;;;;;;2.00;100.00;98689.84;5032721;28;20463;-48
2020/12/11 05:54:54;;;;;;;0.20;0.10;;;;;;;1.87;100.00;98683.13;5033110;28;20578;-47
2020/12/11 05:57:22;;;;;;;0.20;0.10;;;;;;;1.88;100.00;98671.75;5031453;28;20444;-48
2020/12/11 05:59:48;;;;;;;0.20;0.10;;;;;;;1.82;100.00;98667.53;5032661;28;20830;-48
2020/12/11 06:02:18;;;;;;;0.20;0.10;;;;;;;1.87;100.00;98665.66;5032449;28;20448;-47
2020/12/11 06:04:46;;;;;;;0.20;0.10;;;;;;;1.96;100.00;98662.88;5032479;28;20883;-47
2020/12/11 06:07:14;;;;;;;0.20;0.10;;;;;;;2.00;100.00;98663.66;5031218;28;20451;-47
2020/12/11 06:09:43;;;;;;;0.20;0.10;;;;;;;1.98;100.00;98661.06;5030455;28;20538;-47
2020/12/11 06:12:11;;;;;;;0.20;0.17;;;;;;;2.03;100.00;98656.59;5032731;28;20447;-47
2020/12/11 06:14:47;;;;;;;0.20;0.10;;;;;;;1.97;100.00;98661.97;5032459;28;20495;-47
2020/12/11 06:17:15;;;;;;;0.20;0.10;;;;;;;1.95;100.00;98655.91;5032022;28;20466;-48
2020/12/11 06:19:44;;;;;;;0.20;0.10;;;;;;;2.01;100.00;98640.03;5019560;28;20479;-47
2020/12/11 06:22:11;;;;;;;0.83;0.83;;;;;;;2.00;100.00;98648.78;5032203;28;20447;-48
2020/12/11 06:24:37;;;;;;;0.20;0.10;;;;;;;2.05;100.00;98641.69;5032142;28;20447;-48
2020/12/11 06:27:04;;;;;;;0.20;0.10;;;;;;;2.05;100.00;98635.59;5032725;28;20812;-49
2020/12/11 06:29:33;;;;;;;0.20;0.10;;;;;;;1.99;100.00;98635.72;5032201;28;20468;-48
2020/12/11 06:31:59;;;;;;;0.20;0.10;;;;;;;2.07;100.00;98639.94;5031918;28;20455;-49
2020/12/11 06:34:26;;;;;;;1.07;0.97;;;;;;;2.07;100.00;98637.31;5032296;28;20556;-48
2020/12/11 06:36:53;;;;;;;0.20;0.10;;;;;;;2.12;100.00;98631.09;5030941;28;20447;-48
2020/12/11 06:39:52;;;;;;;0.20;0.10;;;;;;;1.98;100.00;98637.50;5020518;28;20475;-47
2020/12/11 06:42:36;;;;;;;0.20;0.10;;;;;;;1.97;100.00;98627.91;5003188;28;21058;-47
2020/12/11 06:45:21;;;;;;;0.33;0.30;;;;;;;2.00;100.00;98627.84;5027426;28;20447;-49
2020/12/11 06:47:57;;;;;;;0.20;0.10;;;;;;;2.08;100.00;98620.69;5032186;28;20494;-48
2020/12/11 06:50:31;;;;;;;0.20;0.10;;;;;;;1.99;100.00;98612.16;5030787;28;20443;-48
2020/12/11 06:52:59;;;;;;;0.20;0.10;;;;;;;1.95;100.00;98621.84;5032209;28;20454;-47
2020/12/11 06:55:49;;;;;;;0.20;0.10;;;;;;;1.95;100.00;98616.59;5019143;28;20502;-47
2020/12/11 06:58:20;;;;;;;0.20;0.10;;;;;;;2.02;100.00;98620.81;5032175;28;20483;-48
2020/12/11 07:00:54;;;;;;;0.20;0.10;;;;;;;1.95;100.00;98623.59;5032143;28;20813;-48
2020/12/11 07:03:23;;;;;;;0.20;0.10;;;;;;;1.90;100.00;98615.81;5031957;28;20566;-48
2020/12/11 07:06:15;;;;;;;0.20;0.10;;;;;;;1.96;100.00;98623.56;5032107;28;20471;-47
2020/12/11 07:08:42;;;;;;;0.33;0.33;;;;;;;2.15;100.00;98621.41;5019281;28;20479;-47
2020/12/11 07:11:10;;;;;;;0.20;0.10;;;;;;;2.18;100.00;98628.34;5030911;28;20814;-48
2020/12/11 07:13:45;;;;;;;0.20;0.10;;;;;;;2.15;100.00;98631.88;5031939;28;20455;-48
2020/12/11 07:16:12;;;;;;;0.20;0.10;;;;;;;2.04;100.00;98628.63;5031910;28;20490;-47
2020/12/11 07:18:43;;;;;;;0.20;0.10;;;;;;;2.00;100.00;98629.59;5031631;28;20482;-52
2020/12/11 07:21:10;;;;;;;0.20;0.10;;;;;;;1.97;100.00;98632.28;5031954;28;20452;-52
2020/12/11 07:23:38;;;;;;;0.20;0.10;;;;;;;2.05;100.00;98625.13;5031996;28;20467;-52
2020/12/11 07:26:04;;;;;;;0.20;0.10;;;;;;;1.98;100.00;98624.41;5031570;28;20562;-51
2020/12/11 07:28:32;;;;;;;0.20;0.10;;;;;;;1.96;100.00;98631.44;5031766;28;20850;-53
2020/12/11 07:30:59;;;;;;;0.20;0.10;;;;;;;1.93;100.00;98622.78;5032007;28;20459;-52
2020/12/11 07:33:30;;;;;;;0.30;0.30;;;;;;;1.90;100.00;98628.91;5031653;28;20459;-52
2020/12/11 07:35:59;;;;;;;0.20;0.10;;;;;;;2.04;100.00;98618.16;5033582;28;20514;-53
2020/12/11 07:38:27;;;;;;;0.20;0.10;;;;;;;2.08;100.00;98619.81;5021773;28;20863;-52
2020/12/11 07:40:55;;;;;;;0.20;0.10;;;;;;;2.08;100.00;98620.69;5035717;28;20459;-52
2020/12/11 07:43:22;;;;;;;0.20;0.10;;;;;;;1.88;100.00;98612.38;5025925;28;20969;-53
2020/12/11 07:45:50;;;;;;;0.20;0.10;;;;;;;2.05;100.00;98607.63;5035109;28;20470;-52
2020/12/11 07:48:24;;;;;;;0.20;0.10;;;;;;;2.11;100.00;98614.50;5035570;28;20480;-53
2020/12/11 07:50:51;;;;;;;0.20;0.10;;;;;;;1.97;100.00;98611.31;5035875;28;20530;-53
2020/12/11 07:53:17;;;;;;;0.20;0.10;;;;;;;1.96;100.00;98605.22;5035242;28;20513;-52
2020/12/11 07:55:44;;;;;;;0.20;0.10;;;;;;;1.99;100.00;98593.81;5035842;28;20491;-53
2020/12/11 07:58:10;;;;;;;0.20;0.10;;;;;;;1.99;100.00;98599.06;5035493;28;20522;-53
2020/12/11 08:00:37;;;;;;;0.20;0.10;;;;;;;1.95;100.00;98590.41;5036153;28;20458;-53
2020/12/11 08:03:06;;;;;;;0.20;0.10;;;;;;;2.03;100.00;98593.72;5036042;28;20454;-53
2020/12/11 08:05:45;;;;;;;0.20;0.10;;;;;;;2.16;100.00;98586.44;5036742;28;20448;-53
2020/12/11 08:08:33;;;;;;;0.20;0.10;;;;;;;2.12;100.00;98587.41;5033529;28;20463;-54
2020/12/11 08:11:10;;;;;;;0.20;0.10;;;;;;;2.13;100.00;98589.13;5038674;28;20480;-54
2020/12/11 08:14:08;;;;;;;0.20;0.10;;;;;;;2.14;100.00;98574.28;4990971;28;20456;-54
2020/12/11 08:16:48;;;;;;;0.20;0.10;;;;;;;2.17;100.00;98577.69;5023114;28;20458;-54
2020/12/11 08:19:38;;;;;;;0.20;0.10;;;;;;;2.08;100.00;98572.66;5034903;28;20468;-53
2020/12/11 08:22:11;;;;;;;0.20;0.10;;;;;;;2.13;100.00;98585.66;5035016;28;20527;-49
2020/12/11 08:24:38;;;;;;;0.20;0.10;;;;;;;2.13;100.00;98583.03;5034896;28;20448;-49
2020/12/11 08:27:04;;;;;;;0.20;0.10;;;;;;;2.10;100.00;98568.25;5035037;28;20873;-48
2020/12/11 08:29:32;;;;;;;0.20;0.10;;;;;;;2.10;100.00;98562.13;5035190;28;21099;-49
2020/12/11 08:32:00;;;;;;;0.20;0.10;;;;;;;2.03;100.00;98569.25;5035329;28;20455;-49
2020/12/11 08:34:30;;;;;;;0.20;0.20;;;;;;;2.01;100.00;98564.06;5034817;28;20455;-48
2020/12/11 08:37:03;;;;;;;0.20;0.10;;;;;;;2.06;100.00;98562.22;5033129;28;20458;-48
2020/12/11 08:39:30;;;;;;;0.20;0.10;;;;;;;2.07;100.00;98563.09;5024408;28;20489;-49
2020/12/11 08:45:00;;;;;;;0.20;0.10;;;;;;;2.08;100.00;98564.81;5024576;28;21003;-48
2020/12/11 08:49:58;;;;;;;0.20;0.10;;;;;;;2.17;100.00;98566.34;5034324;28;20451;-48
2020/12/11 08:52:25;;;;;;;0.20;0.10;;;;;;;2.18;100.00;98574.16;5034409;28;20459;-48
2020/12/11 08:54:51;;;;;;;0.20;0.10;;;;;;;2.18;100.00;98562.81;5033857;28;20490;-49
2020/12/11 08:57:17;;;;;;;0.20;0.10;;;;;;;2.25;100.00;98559.16;5034164;28;20451;-49
2020/12/11 08:59:44;;;;;;;0.20;0.10;;;;;;;2.29;100.00;98569.53;5033778;28;20455;-49
2020/12/11 09:02:10;;;;;;;0.20;0.10;;;;;;;2.31;100.00;98565.13;5033895;28;20466;-49
2020/12/11 09:04:36;;;;;;;0.20;0.10;;;;;;;2.27;100.00;98563.47;5034187;28;20451;-49
2020/12/11 09:07:05;;;;;;;0.20;0.10;;;;;;;2.35;100.00;98574.66;5033823;28;20883;-49
2020/12/11 09:09:32;;;;;;;0.20;0.10;;;;;;;2.35;100.00;98571.16;5030189;28;21046;-48
2020/12/11 09:11:58;;;;;;;0.20;0.10;;;;;;;2.40;100.00;98558.81;5034291;28;20452;-48
2020/12/11 09:14:24;;;;;;;0.20;0.10;;;;;;;2.51;100.00;98569.03;5033497;28;20502;-49
2020/12/11 09:16:50;;;;;;;0.30;0.20;;;;;;;2.49;100.00;98562.97;5033231;28;20444;-48
2020/12/11 09:19:19;;;;;;;0.20;0.10;;;;;;;2.58;100.00;98557.50;5033750;28;20468;-48
2020/12/11 09:21:45;;;;;;;0.20;0.10;;;;;;;2.54;100.00;98567.19;5033445;28;20977;-49
2020/12/11 09:24:12;;;;;;;0.20;0.10;;;;;;;2.52;100.00;98574.25;5032972;28;20995;-49
2020/12/11 09:26:39;;;;;;;0.20;0.10;;;;;;;2.61;100.00;98571.41;5033445;28;20448;-49
2020/12/11 09:29:15;;;;;;;0.20;0.10;;;;;;;2.41;100.00;98572.78;5032854;28;20475;-49
2020/12/11 09:31:45;;;;;;;0.20;0.10;;;;;;;2.49;100.00;98570.84;5033704;28;20915;-49
2020/12/11 09:34:14;;;;;;;0.20;0.10;;;;;;;2.35;100.00;98558.06;5033704;28;20532;-47
2020/12/11 09:36:42;;;;;;;0.20;0.10;;;;;;;2.45;100.00;98554.31;5033453;28;20881;-48
2020/12/11 09:39:10;;;;;;;0.20;0.10;;;;;;;2.59;100.00;98556.59;5020385;28;20467;-50
2020/12/11 09:41:44;;;;;;;0.20;0.10;;;;;;;2.81;100.00;98559.56;5032907;28;20945;-48
2020/12/11 09:49:33;;;;;;;0.20;0.10;;;;;;;2.53;100.00;98541.88;5032974;28;20467;-47
2020/12/11 09:52:12;;;;;;;0.20;0.10;;;;;;;2.52;100.00;98540.16;5032749;28;21001;-47
2020/12/11 09:54:38;;;;;;;0.20;0.10;;;;;;;2.59;100.00;98531.22;5032777;28;20474;-48
2020/12/11 09:57:05;;;;;;;0.20;0.10;;;;;;;2.51;100.00;98527.09;5032824;28;20940;-48
2020/12/11 09:59:38;;;;;;;0.77;0.73;;;;;;;2.48;100.00;98524.56;5032004;28;20472;-49
2020/12/11 10:04:33;;;;;;;0.20;0.10;;;;;;;2.61;100.00;98515.47;5032533;28;20454;-48
2020/12/11 10:06:59;;;;;;;0.20;0.10;;;;;;;2.70;100.00;98517.00;5032798;28;20448;-47
2020/12/11 10:09:25;;;;;;;0.20;0.10;;;;;;;2.59;100.00;98507.63;5028518;28;20993;-47
2020/12/11 10:11:53;;;;;;;0.20;0.10;;;;;;;2.74;100.00;98500.25;5032828;28;20871;-47
2020/12/11 10:16:55;;;;;;;0.20;0.10;;;;;;;2.88;100.00;98495.53;5032608;28;20830;-48
2020/12/11 10:19:22;;;;;;;0.20;0.10;;;;;;;2.90;100.00;98499.84;5032450;28;20498;-49
2020/12/11 10:21:53;;;;;;;0.20;0.10;;;;;;;2.84;100.00;98481.63;5032761;28;20504;-48
2020/12/11 10:24:20;;;;;;;0.20;0.10;;;;;;;2.64;100.00;98476.91;5032419;28;20462;-47
2020/12/11 10:26:47;;;;;;;0.20;0.10;;;;;;;2.64;100.00;98471.66;5032756;28;20498;-47
2020/12/11 10:29:14;;;;;;;0.20;0.10;;;;;;;2.65;100.00;98452.41;5032201;28;20492;-49
2020/12/11 10:31:44;;;;;;;0.20;0.10;;;;;;;2.72;100.00;98466.19;5032577;28;20448;-47
2020/12/11 10:34:15;;;;;;;0.20;0.10;;;;;;;2.71;100.00;98453.13;5032313;28;20822;-47
2020/12/11 10:36:45;;;;;;;0.20;0.10;;;;;;;2.68;100.00;98447.06;5031751;28;20491;-47
2020/12/11 10:39:11;;;;;;;0.20;0.10;;;;;;;2.87;100.00;98451.81;5019988;28;20476;-47
2020/12/11 10:41:40;;;;;;;0.20;0.10;;;;;;;3.01;100.00;98435.69;5032435;28;20917;-49
2020/12/11 10:44:06;;;;;;;0.20;0.10;;;;;;;2.98;100.00;98427.00;5022491;28;20467;-47
2020/12/11 10:46:32;;;;;;;0.20;0.10;;;;;;;3.04;100.00;98438.25;5032178;28;20451;-47
2020/12/11 10:48:59;;;;;;;0.20;0.13;;;;;;;3.08;100.00;98432.84;5032077;28;20476;-47
2020/12/11 10:51:25;;;;;;;0.20;0.10;;;;;;;3.20;100.00;98436.91;5032298;28;20967;-47
2020/12/11 10:53:52;;;;;;;0.20;0.10;;;;;;;3.21;100.00;98430.75;5032442;28;20482;-47
2020/12/11 10:56:19;;;;;;;0.20;0.10;;;;;;;3.12;100.00;98426.59;5031677;28;21000;-50
2020/12/11 10:58:47;;;;;;;0.20;0.10;;;;;;;3.10;100.00;98419.69;5032076;28;20475;-47
2020/12/11 11:01:14;;;;;;;0.20;0.10;;;;;;;3.20;100.00;98419.38;5032385;28;20459;-47
2020/12/11 11:03:40;;;;;;;0.20;0.10;;;;;;;3.20;100.00;98410.66;5032199;28;20459;-48
2020/12/11 11:06:28;;;;;;;0.20;0.10;;;;;;;3.16;100.00;98409.88;5032233;28;20448;-47
2020/12/11 11:22:29;;;;;;;0.20;0.10;;;;;;;3.40;100.00;98383.78;4994009;28;20467;-48
2020/12/11 11:30:05;;;;;;;0.20;0.10;;;;;;;3.34;100.00;98352.47;5036126;28;20440;-48
2020/12/11 11:32:32;;;;;;;0.20;0.10;;;;;;;3.27;100.00;98352.66;5035589;28;20483;-48
2020/12/11 11:34:58;;;;;;;0.20;0.10;;;;;;;3.40;100.00;98344.41;5035698;28;20541;-48
2020/12/11 11:37:28;;;;;;;0.20;0.10;;;;;;;3.35;100.00;98341.94;5029305;28;20551;-48
2020/12/11 11:39:55;;;;;;;0.20;0.10;;;;;;;3.49;100.00;98342.34;5027956;28;20486;-52
2020/12/11 11:42:22;;;;;;;0.20;0.10;;;;;;;3.55;100.00;98344.78;5032238;28;20568;-50
2020/12/11 11:44:58;;;;;;;0.20;0.10;;;;;;;3.69;100.00;98338.22;5029203;28;20447;-50
2020/12/11 11:47:24;;;;;;;0.20;0.10;;;;;;;3.71;100.00;98325.91;5035298;28;20824;-50
2020/12/11 11:54:49;;;;;;;0.20;0.10;;;;;;;3.90;100.00;98337.53;5035510;28;20458;-49
2020/12/11 11:57:15;;;;;;;0.20;0.10;;;;;;;3.62;100.00;98329.69;5035454;28;20874;-50
2020/12/11 11:59:42;;;;;;;0.20;0.10;;;;;;;3.64;100.00;98316.50;5035329;28;20471;-49
2020/12/11 12:02:08;;;;;;;0.20;0.10;;;;;;;3.67;100.00;98313.78;5035713;28;20451;-49
2020/12/11 12:04:35;;;;;;;0.20;0.10;;;;;;;3.75;100.00;98304.72;5035273;28;20451;-50
2020/12/11 12:07:01;;;;;;;0.20;0.10;;;;;;;3.64;100.00;98311.25;5035137;28;20452;-50
2020/12/11 12:09:27;;;;;;;0.20;0.10;;;;;;;3.62;100.00;98310.44;5030844;28;20554;-50
2020/12/11 12:11:53;;;;;;;0.20;0.10;;;;;;;3.75;100.00;98301.25;5035204;28;20451;-50
2020/12/11 12:14:20;;;;;;;0.20;0.10;;;;;;;3.67;100.00;98300.63;5034753;28;20510;-49
2020/12/11 12:16:50;;;;;;;0.20;0.10;;;;;;;3.68;100.00;98294.47;5034632;28;20862;-50
2020/12/11 12:19:22;;;;;;;0.20;0.10;;;;;;;3.60;100.00;98294.75;5034643;28;20468;-49